Time;durP1;ratioP1;P1;durP2;ratioP2;P2;SDS_P1;SDS_P2;PMS_P1;PMS_P2;Temp;Humidity;BMP_temperature;BMP_pressure;BME280_temperature;BME280_humidity;BME280_pressure;Samples;Min_cycle;Max_cycle;Signal;HPM_P1;HPM_P2
2023/01/09 00:00:41;;;;;;;0.10;0.10;;;;;;;8.79;69.93;99405.44;5111209;28;20285;-78
2023/01/09 00:03:07;;;;;;;0.10;0.10;;;;;;;8.77;69.37;99402.81;5113443;28;20466;-80
2023/01/09 00:05:33;;;;;;;0.10;0.10;;;;;;;8.67;69.69;99398.78;5119570;28;20027;-79
2023/01/09 00:07:59;;;;;;;0.10;0.10;;;;;;;8.67;69.39;99412.88;5120298;28;20042;-79
2023/01/09 00:10:25;;;;;;;0.10;0.10;;;;;;;8.59;69.88;99409.63;5111369;28;20024;-79
2023/01/09 00:12:51;;;;;;;0.10;0.10;;;;;;;8.57;69.92;99400.91;5112726;28;20047;-79
2023/01/09 00:15:17;;;;;;;0.10;0.10;;;;;;;8.50;70.48;99400.25;5124692;28;20024;-79
2023/01/09 00:17:46;;;;;;;0.30;0.30;;;;;;;8.53;70.23;99410.69;5124308;28;20526;-77
2023/01/09 00:20:12;;;;;;;0.10;0.10;;;;;;;8.47;70.48;99413.53;5116838;28;20028;-77
2023/01/09 00:22:38;;;;;;;0.10;0.10;;;;;;;8.45;69.90;99419.75;5114495;28;20032;-79
2023/01/09 00:25:06;;;;;;;0.10;0.10;;;;;;;8.46;70.31;99418.84;5108758;28;20047;-79
2023/01/09 00:27:34;;;;;;;0.10;0.10;;;;;;;8.43;70.36;99403.97;5116666;28;20070;-79
2023/01/09 00:30:01;;;;;;;0.10;0.10;;;;;;;8.36;69.80;99407.75;5108288;28;20020;-80
2023/01/09 00:32:28;;;;;;;0.20;0.20;;;;;;;8.31;70.53;99400.00;5110868;28;20585;-79
2023/01/09 00:34:55;;;;;;;0.10;0.10;;;;;;;8.26;70.22;99396.63;5112671;28;20040;-79
2023/01/09 00:37:22;;;;;;;0.10;0.10;;;;;;;8.21;71.38;99407.34;5113427;28;20522;-80
2023/01/09 00:39:48;;;;;;;0.10;0.10;;;;;;;8.24;70.44;99403.75;5110464;28;20039;-78
2023/01/09 00:42:19;;;;;;;0.20;0.20;;;;;;;8.22;70.31;99395.03;5115784;28;20035;-76
2023/01/09 00:44:51;;;;;;;0.10;0.10;;;;;;;8.18;71.31;99393.41;5119537;28;20035;-78
2023/01/09 00:47:23;;;;;;;0.20;0.20;;;;;;;8.17;71.30;99389.03;5118230;28;20027;-79
2023/01/09 00:49:50;;;;;;;0.17;0.17;;;;;;;8.15;70.75;99388.22;5110155;28;20027;-80
2023/01/09 00:52:18;;;;;;;0.10;0.10;;;;;;;8.08;71.14;99388.41;5116600;28;20035;-79
2023/01/09 00:54:45;;;;;;;0.10;0.10;;;;;;;8.05;71.77;99393.81;5116709;28;20058;-78
2023/01/09 00:57:12;;;;;;;0.20;0.20;;;;;;;8.01;71.70;99397.47;5116927;28;20080;-79
2023/01/09 00:59:40;;;;;;;0.10;0.10;;;;;;;8.04;71.66;99391.22;5123072;28;20028;-78
2023/01/09 01:02:06;;;;;;;0.10;0.10;;;;;;;8.01;70.75;99386.91;5122481;28;20114;-78
2023/01/09 01:07:50;;;;;;;0.20;0.20;;;;;;;8.00;70.80;99387.84;5104180;28;20043;-80
2023/01/09 01:10:09;;;;;;;0.10;0.10;;;;;;;7.95;70.94;99381.84;5105937;28;20093;-79
2023/01/09 01:12:35;;;;;;;0.10;0.10;;;;;;;7.85;71.43;99401.50;5115322;28;20083;-80
2023/01/09 01:15:03;;;;;;;0.13;0.13;;;;;;;7.86;71.34;99397.94;5115194;28;20028;-79
2023/01/09 01:17:29;;;;;;;0.10;0.10;;;;;;;7.82;71.44;99396.34;5124751;28;20027;-79
2023/01/09 01:19:55;;;;;;;0.20;0.20;;;;;;;7.78;71.29;99400.84;5126040;28;20414;-79
2023/01/09 01:22:21;;;;;;;0.10;0.10;;;;;;;7.80;71.13;99396.38;5126952;28;20031;-80
2023/01/09 01:24:47;;;;;;;0.10;0.10;;;;;;;7.78;72.04;99404.31;5125385;28;20122;-79
2023/01/09 01:27:14;;;;;;;0.73;0.73;;;;;;;7.80;71.24;99406.94;5120553;28;20047;-80
2023/01/09 01:29:40;;;;;;;0.10;0.10;;;;;;;7.78;71.69;99417.50;5114469;28;20032;-79
2023/01/09 01:32:06;;;;;;;0.10;0.10;;;;;;;7.83;72.04;99419.16;5127065;28;20039;-78
2023/01/09 01:34:33;;;;;;;0.20;0.20;;;;;;;7.91;71.37;99417.13;5125568;28;20035;-78
2023/01/09 01:36:59;;;;;;;0.10;0.10;;;;;;;7.97;71.88;99416.06;5132488;28;20131;-79
2023/01/09 01:39:25;;;;;;;0.10;0.10;;;;;;;7.97;71.81;99419.56;5120911;28;20044;-79
2023/01/09 01:41:51;;;;;;;0.10;0.10;;;;;;;7.97;72.06;99422.19;5116119;28;20115;-78
2023/01/09 01:44:57;;;;;;;0.10;0.10;;;;;;;8.17;72.16;99423.34;5116160;28;20487;-79
2023/01/09 01:47:31;;;;;;;0.10;0.10;;;;;;;8.20;71.83;99417.94;5124735;28;20038;-78
2023/01/09 01:49:59;;;;;;;0.10;0.10;;;;;;;8.19;72.12;99411.81;5115334;28;20024;-78
2023/01/09 01:52:26;;;;;;;0.10;0.10;;;;;;;8.30;72.48;99408.81;5130096;28;20059;-78
2023/01/09 01:54:53;;;;;;;0.10;0.10;;;;;;;8.30;72.24;99408.81;5125050;28;20548;-78
2023/01/09 01:57:20;;;;;;;0.10;0.10;;;;;;;8.36;71.66;99408.63;5115104;28;20027;-79
2023/01/09 01:59:51;;;;;;;0.10;0.10;;;;;;;8.34;71.86;99409.59;5102348;28;20031;-79
2023/01/09 02:02:22;;;;;;;0.10;0.10;;;;;;;8.31;71.73;99417.59;5116932;28;20060;-80
2023/01/09 02:04:52;;;;;;;0.22;0.22;;;;;;;8.22;72.01;99424.03;5114630;28;20495;-79
2023/01/09 02:07:18;;;;;;;0.10;0.10;;;;;;;8.23;71.28;99418.69;5105780;28;20063;-79
2023/01/09 02:09:45;;;;;;;0.10;0.10;;;;;;;8.22;71.55;99405.56;5106538;28;21085;-78
2023/01/09 02:12:22;;;;;;;0.10;0.10;;;;;;;8.19;71.76;99413.59;5132395;28;20022;-78
2023/01/09 02:14:52;;;;;;;0.10;0.10;;;;;;;8.09;71.22;99426.22;5113117;28;20509;-80
2023/01/09 02:17:58;;;;;;;0.38;0.38;;;;;;;8.10;71.63;99418.25;5112086;28;20504;-80
2023/01/09 02:23:43;;;;;;;0.10;0.10;;;;;;;8.04;71.40;99422.88;5110197;27;20407;-78
2023/01/09 02:26:27;;;;;;;0.10;0.10;;;;;;;7.99;71.12;99428.31;5096544;28;20111;-79
2023/01/09 02:29:23;;;;;;;0.63;0.63;;;;;;;7.98;71.50;99431.00;5068337;28;20414;-78
2023/01/09 02:32:05;;;;;;;0.20;0.20;;;;;;;7.93;71.82;99424.06;5075710;28;20055;-78
2023/01/09 02:34:45;;;;;;;0.13;0.13;;;;;;;7.92;71.65;99426.75;5073672;28;20025;-78
2023/01/09 02:37:37;;;;;;;0.20;0.20;;;;;;;7.85;71.85;99428.75;5069315;28;20060;-78
2023/01/09 02:42:49;;;;;;;0.10;0.10;;;;;;;7.82;71.90;99420.06;5066736;28;20780;-77
2023/01/09 02:45:15;;;;;;;0.10;0.10;;;;;;;7.80;71.82;99422.75;5048302;28;20499;-78
2023/01/09 02:47:44;;;;;;;0.10;0.10;;;;;;;7.81;71.85;99428.88;5036347;28;20030;-77
2023/01/09 02:50:50;;;;;;;0.10;0.10;;;;;;;7.81;72.01;99423.59;5028239;28;20033;-78
2023/01/09 02:56:22;;;;;;;0.20;0.20;;;;;;;7.77;71.85;99418.41;5071718;28;21117;-78
2023/01/09 03:02:21;;;;;;;0.50;0.50;;;;;;;7.76;71.63;99423.75;5107941;28;20387;-78
2023/01/09 03:05:02;;;;;;;0.10;0.10;;;;;;;7.76;71.92;99419.34;5071313;28;20079;-79
2023/01/09 03:07:54;;;;;;;0.10;0.10;;;;;;;7.73;72.05;99411.53;5069959;28;20033;-79
2023/01/09 03:10:34;;;;;;;0.10;0.10;;;;;;;7.73;72.38;99418.56;5063972;28;20059;-79
2023/01/09 03:13:02;;;;;;;0.10;0.10;;;;;;;7.70;72.15;99409.00;5069391;28;20049;-79
2023/01/09 03:15:35;;;;;;;0.10;0.10;;;;;;;7.71;71.79;99408.09;5064407;28;20392;-79
2023/01/09 03:18:03;;;;;;;0.10;0.10;;;;;;;7.69;71.88;99412.53;5062602;28;20047;-78
2023/01/09 03:20:31;;;;;;;0.10;0.10;;;;;;;7.67;71.62;99403.81;5063218;28;20044;-79
2023/01/09 03:23:01;;;;;;;0.20;0.20;;;;;;;7.64;71.75;99409.19;5062596;28;20036;-79
2023/01/09 03:25:29;;;;;;;0.20;0.20;;;;;;;7.63;71.82;99406.56;5059889;28;20025;-77
2023/01/09 03:27:58;;;;;;;0.20;0.20;;;;;;;7.62;72.04;99400.44;5055205;28;20037;-78
2023/01/09 03:30:26;;;;;;;0.10;0.10;;;;;;;7.58;71.48;99393.56;5052577;28;20024;-78
2023/01/09 03:32:52;;;;;;;0.10;0.10;;;;;;;7.58;71.47;99385.66;5060268;28;20054;-78
2023/01/09 03:35:18;;;;;;;0.10;0.10;;;;;;;7.57;71.90;99386.56;5053510;28;20037;-78
2023/01/09 03:37:44;;;;;;;0.10;0.10;;;;;;;7.53;72.04;99384.94;5053502;28;20029;-79
2023/01/09 03:40:11;;;;;;;0.10;0.10;;;;;;;7.54;71.50;99381.38;5061470;28;20029;-78
2023/01/09 03:42:37;;;;;;;0.20;0.20;;;;;;;7.53;71.44;99379.66;5065094;28;20025;-78
2023/01/09 03:45:04;;;;;;;0.10;0.10;;;;;;;7.52;71.56;99391.13;5057937;28;20044;-79
2023/01/09 03:47:30;;;;;;;0.20;0.20;;;;;;;7.50;71.66;99391.16;5056195;28;20044;-79
2023/01/09 03:49:56;;;;;;;0.20;0.20;;;;;;;7.45;71.55;99404.47;5051163;28;20079;-79
2023/01/09 03:52:23;;;;;;;0.50;0.50;;;;;;;7.42;71.68;99409.81;5050027;28;20131;-78
2023/01/09 03:54:49;;;;;;;0.20;0.20;;;;;;;7.40;72.30;99414.28;5048034;28;20063;-78
2023/01/09 03:57:15;;;;;;;0.30;0.30;;;;;;;7.42;72.45;99417.72;5050695;28;20041;-78
2023/01/09 03:59:41;;;;;;;0.28;0.28;;;;;;;7.43;71.87;99416.81;5049231;28;20025;-79
2023/01/09 04:02:07;;;;;;;0.20;0.20;;;;;;;7.51;72.24;99410.47;5050108;28;20043;-79
2023/01/09 04:04:33;;;;;;;0.17;0.17;;;;;;;7.54;72.13;99399.81;5046966;28;20044;-79
2023/01/09 04:06:59;;;;;;;0.10;0.10;;;;;;;7.60;72.11;99402.25;5052289;28;20032;-77
2023/01/09 04:09:25;;;;;;;0.10;0.10;;;;;;;7.61;71.93;99404.00;5067556;28;20033;-77
2023/01/09 04:11:51;;;;;;;0.10;0.10;;;;;;;7.63;72.70;99402.19;5059268;28;20044;-79
2023/01/09 04:14:17;;;;;;;0.20;0.20;;;;;;;7.65;72.51;99404.75;5037496;28;20041;-79
2023/01/09 04:16:43;;;;;;;0.10;0.10;;;;;;;7.62;72.10;99403.09;5034657;28;20037;-78
2023/01/09 04:19:09;;;;;;;0.10;0.10;;;;;;;7.64;72.23;99409.19;5032434;28;20022;-79
2023/01/09 04:21:36;;;;;;;0.10;0.10;;;;;;;7.66;72.14;99399.44;5034440;28;20108;-78
2023/01/09 04:24:02;;;;;;;0.10;0.10;;;;;;;7.74;72.31;99394.78;5036693;28;20526;-78
2023/01/09 04:26:28;;;;;;;0.10;0.10;;;;;;;7.77;72.07;99392.03;5033367;28;20033;-79
2023/01/09 04:28:54;;;;;;;0.10;0.10;;;;;;;7.84;72.51;99389.22;5030067;28;20033;-78
2023/01/09 04:31:20;;;;;;;0.10;0.10;;;;;;;7.85;72.71;99383.03;5033493;28;20043;-79
2023/01/09 04:33:46;;;;;;;0.10;0.10;;;;;;;7.86;72.13;99382.13;5034165;28;20041;-79
2023/01/09 04:36:12;;;;;;;0.10;0.10;;;;;;;7.89;72.27;99382.91;5033375;28;20037;-79
2023/01/09 04:38:38;;;;;;;0.10;0.10;;;;;;;7.91;72.35;99377.56;5035773;28;20036;-78
2023/01/09 04:41:04;;;;;;;0.10;0.10;;;;;;;7.96;72.47;99380.91;5041443;28;20439;-80
2023/01/09 04:43:30;;;;;;;0.52;0.52;;;;;;;7.93;72.05;99378.38;5044468;28;20072;-79
2023/01/09 04:45:57;;;;;;;0.30;0.30;;;;;;;7.93;72.42;99368.69;5045997;28;20033;-79
2023/01/09 04:48:23;;;;;;;0.10;0.10;;;;;;;7.96;72.33;99375.63;5041610;28;20152;-79
2023/01/09 04:50:49;;;;;;;0.10;0.10;;;;;;;7.93;72.34;99373.13;5043726;28;20021;-79
2023/01/09 04:53:15;;;;;;;0.10;0.10;;;;;;;7.94;71.85;99373.06;5045017;28;20029;-79
2023/01/09 04:55:41;;;;;;;0.10;0.10;;;;;;;7.94;72.30;99374.84;5041868;28;20024;-79
2023/01/09 04:58:08;;;;;;;0.10;0.10;;;;;;;7.92;72.53;99371.38;5042881;28;20025;-78
2023/01/09 05:00:34;;;;;;;0.28;0.28;;;;;;;7.92;71.75;99363.47;5043879;28;20060;-79
2023/01/09 05:03:01;;;;;;;0.10;0.10;;;;;;;7.87;72.56;99365.41;5042876;28;20029;-79
2023/01/09 05:05:28;;;;;;;0.10;0.10;;;;;;;7.97;71.78;99366.81;5041727;28;20116;-78
2023/01/09 05:07:54;;;;;;;0.10;0.10;;;;;;;8.01;72.47;99365.81;5039690;28;20124;-78
2023/01/09 05:10:20;;;;;;;0.10;0.10;;;;;;;8.03;71.87;99353.41;5052152;28;20532;-77
2023/01/09 05:12:46;;;;;;;0.20;0.20;;;;;;;8.08;71.96;99354.13;5043725;28;20037;-79
2023/01/09 05:15:12;;;;;;;0.10;0.10;;;;;;;8.15;72.05;99353.91;5049755;28;20092;-78
2023/01/09 05:17:38;;;;;;;0.10;0.10;;;;;;;8.20;72.09;99351.97;5063743;28;20029;-78
2023/01/09 05:20:04;;;;;;;0.10;0.10;;;;;;;8.24;71.84;99356.25;5059368;28;20078;-78
2023/01/09 05:22:31;;;;;;;0.47;0.47;;;;;;;8.25;71.82;99358.00;5058807;28;20037;-79
2023/01/09 05:24:57;;;;;;;0.10;0.10;;;;;;;8.27;71.92;99356.13;5052594;28;20039;-76
2023/01/09 05:27:23;;;;;;;0.13;0.13;;;;;;;8.32;71.74;99354.19;5051712;28;20049;-77
2023/01/09 05:29:49;;;;;;;0.10;0.10;;;;;;;8.35;71.61;99346.19;5050425;28;20044;-77
2023/01/09 05:32:15;;;;;;;0.10;0.10;;;;;;;8.30;71.78;99348.13;5058567;28;20028;-79
2023/01/09 05:34:41;;;;;;;0.10;0.10;;;;;;;8.38;71.78;99343.44;5065606;28;20481;-79
2023/01/09 05:37:07;;;;;;;0.10;0.10;;;;;;;8.41;71.85;99343.34;5064651;28;20104;-78
2023/01/09 05:39:33;;;;;;;0.10;0.10;;;;;;;8.40;71.67;99340.75;5048082;28;20029;-79
2023/01/09 05:41:59;;;;;;;0.10;0.10;;;;;;;8.42;71.65;99338.91;5044519;28;20037;-79
2023/01/09 05:44:25;;;;;;;0.10;0.10;;;;;;;8.38;71.67;99332.88;5044678;28;20029;-79
2023/01/09 05:46:51;;;;;;;0.17;0.17;;;;;;;8.38;71.70;99348.72;5048130;28;20029;-79
2023/01/09 05:49:17;;;;;;;0.10;0.10;;;;;;;8.42;72.34;99345.06;5049073;28;20112;-79
2023/01/09 05:51:43;;;;;;;0.10;0.10;;;;;;;8.42;71.90;99339.78;5043339;28;20048;-79
2023/01/09 05:54:09;;;;;;;0.10;0.10;;;;;;;8.43;71.72;99341.47;5041479;28;20037;-79
2023/01/09 05:56:35;;;;;;;0.10;0.10;;;;;;;8.45;72.03;99336.19;5041687;28;20036;-80
2023/01/09 05:59:01;;;;;;;0.20;0.20;;;;;;;8.48;72.46;99343.16;5040948;28;20033;-80
2023/01/09 06:01:28;;;;;;;0.30;0.30;;;;;;;8.47;71.96;99336.16;5040160;28;20029;-78
2023/01/09 06:03:54;;;;;;;0.10;0.10;;;;;;;8.45;71.94;99337.94;5039032;28;20167;-79
2023/01/09 06:06:22;;;;;;;0.10;0.10;;;;;;;8.50;72.45;99330.75;5042485;28;20276;-80
2023/01/09 06:08:48;;;;;;;0.10;0.10;;;;;;;8.47;72.72;99336.16;5032532;28;20022;-79
2023/01/09 06:11:15;;;;;;;2.20;1.35;;;;;;;8.49;72.72;99340.44;5035387;28;20409;-80
2023/01/09 06:13:41;;;;;;;0.10;0.10;;;;;;;8.45;72.35;99328.25;5037528;28;20040;-80
2023/01/09 06:16:07;;;;;;;0.10;0.10;;;;;;;8.41;72.45;99332.78;5038077;28;20029;-79
2023/01/09 06:18:33;;;;;;;0.10;0.10;;;;;;;8.49;73.00;99323.78;5040866;28;20048;-78
2023/01/09 06:20:59;;;;;;;0.10;0.10;;;;;;;8.53;72.95;99328.00;5037919;28;20021;-77
2023/01/09 06:23:25;;;;;;;0.38;0.38;;;;;;;8.50;72.80;99320.19;5046279;28;20065;-79
2023/01/09 06:25:51;;;;;;;0.38;0.38;;;;;;;8.59;72.83;99333.06;5037923;28;20032;-77
2023/01/09 06:28:17;;;;;;;0.10;0.10;;;;;;;8.57;72.65;99334.88;5040964;28;20045;-78
2023/01/09 06:30:43;;;;;;;0.10;0.10;;;;;;;8.57;72.57;99329.63;5047542;28;20034;-78
2023/01/09 06:33:09;;;;;;;0.20;0.20;;;;;;;8.60;72.86;99326.00;5045554;28;20101;-77
2023/01/09 06:35:35;;;;;;;0.17;0.17;;;;;;;8.64;73.09;99331.13;5047752;28;20041;-78
2023/01/09 06:38:02;;;;;;;0.20;0.20;;;;;;;8.60;72.90;99321.59;5046569;28;20033;-79
2023/01/09 06:40:28;;;;;;;0.10;0.10;;;;;;;8.63;72.91;99326.75;5044090;28;20026;-79
2023/01/09 06:42:54;;;;;;;0.20;0.20;;;;;;;8.64;73.12;99325.84;5046727;28;20048;-79
2023/01/09 06:45:20;;;;;;;0.10;0.10;;;;;;;8.61;73.40;99323.31;5048075;28;20029;-78
2023/01/09 06:47:47;;;;;;;0.10;0.10;;;;;;;8.62;72.77;99319.75;5050823;28;20056;-78
2023/01/09 06:50:13;;;;;;;0.10;0.10;;;;;;;8.65;73.42;99317.00;5049434;28;20013;-79
2023/01/09 06:52:39;;;;;;;0.10;0.10;;;;;;;8.68;73.31;99324.81;5036125;28;20124;-80
2023/01/09 06:55:06;;;;;;;0.10;0.10;;;;;;;8.65;73.08;99334.59;5037930;28;20029;-79
2023/01/09 06:57:32;;;;;;;0.10;0.10;;;;;;;8.57;72.97;99335.78;5047784;28;20135;-80
2023/01/09 06:59:58;;;;;;;0.10;0.10;;;;;;;8.65;73.49;99335.50;5037483;28;20029;-79
2023/01/09 07:02:24;;;;;;;0.10;0.10;;;;;;;8.69;72.97;99334.44;5040041;28;20033;-79
2023/01/09 07:04:50;;;;;;;0.10;0.10;;;;;;;8.72;73.23;99331.72;5047522;28;20060;-78
2023/01/09 07:07:18;;;;;;;0.10;0.10;;;;;;;8.67;73.46;99368.00;5049936;28;20397;-79
2023/01/09 07:09:44;;;;;;;0.10;0.10;;;;;;;8.72;73.20;99339.63;5034378;28;20024;-79
2023/01/09 07:12:11;;;;;;;0.30;0.30;;;;;;;8.71;73.93;99351.09;5031755;28;20021;-79
2023/01/09 07:14:37;;;;;;;0.40;0.40;;;;;;;8.73;73.94;99349.28;5047591;28;20026;-79
2023/01/09 07:17:03;;;;;;;0.10;0.10;;;;;;;8.70;73.44;99353.81;5039527;28;20033;-79
2023/01/09 07:19:29;;;;;;;0.10;0.10;;;;;;;8.80;73.26;99355.19;5043083;28;20088;-79
2023/01/09 07:21:55;;;;;;;0.10;0.10;;;;;;;8.84;73.21;99353.31;5041960;28;20082;-79
2023/01/09 07:24:21;;;;;;;0.00;0.00;;;;;;;8.87;73.18;99363.75;5049679;28;20029;-79
2023/01/09 07:26:47;;;;;;;0.10;0.10;;;;;;;8.89;73.32;99364.56;5045423;28;20037;-83
2023/01/09 07:29:13;;;;;;;0.10;0.10;;;;;;;8.84;74.13;99377.91;5040720;28;20037;-79
2023/01/09 07:31:39;;;;;;;0.10;0.10;;;;;;;8.89;73.87;99380.41;5038707;28;20486;-80
2023/01/09 07:34:06;;;;;;;0.10;0.10;;;;;;;8.90;73.86;99379.50;5039708;28;20045;-79
2023/01/09 07:36:32;;;;;;;0.10;0.10;;;;;;;8.92;73.34;99390.84;5048519;28;20131;-80
2023/01/09 07:38:58;;;;;;;0.20;0.20;;;;;;;8.95;73.33;99397.78;5045121;28;20124;-79
2023/01/09 07:41:24;;;;;;;0.10;0.10;;;;;;;8.99;73.13;99412.63;5044586;28;20093;-79
2023/01/09 07:43:50;;;;;;;0.10;0.10;;;;;;;8.99;73.60;99412.63;5039351;28;20029;-79
2023/01/09 07:46:16;;;;;;;0.20;0.20;;;;;;;9.03;73.76;99420.41;5039785;28;20032;-77
2023/01/09 07:48:42;;;;;;;0.30;0.30;;;;;;;9.05;73.45;99434.41;5045127;28;20061;-78
2023/01/09 07:51:09;;;;;;;0.10;0.10;;;;;;;9.02;73.37;99445.09;5039257;28;20030;-78
2023/01/09 07:53:35;;;;;;;0.10;0.10;;;;;;;9.03;73.41;99449.47;5024227;28;20770;-79
2023/01/09 07:56:01;;;;;;;0.10;0.10;;;;;;;9.11;73.52;99456.22;5039119;28;20021;-78
2023/01/09 07:58:27;;;;;;;0.10;0.10;;;;;;;9.13;73.37;99457.03;5036336;28;20030;-79
2023/01/09 08:00:53;;;;;;;0.10;0.10;;;;;;;9.09;73.40;99472.13;5039666;28;20276;-77
2023/01/09 08:03:19;;;;;;;0.10;0.10;;;;;;;9.20;72.83;99471.75;5038298;28;20721;-79
2023/01/09 08:05:45;;;;;;;0.10;0.10;;;;;;;9.22;72.87;99486.63;5039402;28;20042;-79
2023/01/09 08:08:13;;;;;;;0.10;0.10;;;;;;;9.19;72.82;99481.44;5049572;28;20555;-80
2023/01/09 08:10:40;;;;;;;0.10;0.10;;;;;;;9.17;72.63;99485.94;5044495;28;20085;-80
2023/01/09 08:13:06;;;;;;;0.10;0.10;;;;;;;9.26;72.83;99489.16;5036291;28;20405;-79
2023/01/09 08:15:32;;;;;;;0.10;0.10;;;;;;;9.22;72.57;99497.22;5047903;28;20063;-80
2023/01/09 08:17:58;;;;;;;0.10;0.10;;;;;;;9.25;72.58;99501.53;5043055;28;20033;-78
2023/01/09 08:20:26;;;;;;;0.10;0.10;;;;;;;9.26;72.87;99511.19;5037940;28;20033;-79
2023/01/09 08:22:53;;;;;;;0.10;0.10;;;;;;;9.29;72.59;99518.97;5057962;28;20029;-79
2023/01/09 08:25:19;;;;;;;0.10;0.10;;;;;;;9.33;72.50;99527.66;5052658;28;20404;-79
2023/01/09 08:27:45;;;;;;;0.10;0.10;;;;;;;9.37;72.48;99524.00;5046947;28;20033;-79
2023/01/09 08:30:12;;;;;;;0.10;0.10;;;;;;;9.36;72.36;99527.56;5050406;28;20095;-78
2023/01/09 08:32:39;;;;;;;1.73;1.65;;;;;;;9.33;72.54;99533.84;5052341;28;20064;-79
2023/01/09 08:35:06;;;;;;;0.10;0.10;;;;;;;9.43;72.80;99547.56;5047853;28;20037;-80
2023/01/09 08:37:32;;;;;;;0.10;0.10;;;;;;;9.41;72.61;99561.75;5036260;28;20033;-79
2023/01/09 08:39:58;;;;;;;0.10;0.10;;;;;;;9.36;72.79;99559.28;5050610;28;20036;-79
2023/01/09 08:47:57;;;;;;;0.25;0.25;;;;;;;9.55;72.78;99575.34;5037327;28;20158;-82
2023/01/09 08:50:23;;;;;;;0.10;0.10;;;;;;;9.60;72.54;99588.41;5037732;28;20118;-79
2023/01/09 08:52:49;;;;;;;0.10;0.10;;;;;;;9.59;72.28;99581.41;5041137;28;20056;-79
2023/01/09 08:55:15;;;;;;;1.38;1.08;;;;;;;9.63;72.21;99586.53;5036954;28;20036;-80
2023/01/09 08:57:50;;;;;;;0.10;0.10;;;;;;;9.72;72.30;99593.25;5048619;28;20036;-80
2023/01/09 09:00:18;;;;;;;0.10;0.10;;;;;;;9.73;72.26;99600.25;5027712;28;20490;-79
2023/01/09 09:02:44;;;;;;;0.10;0.10;;;;;;;9.76;72.02;99610.75;5030919;28;20084;-80
2023/01/09 09:05:10;;;;;;;0.88;0.47;;;;;;;9.84;72.06;99613.09;5037178;28;20071;-81
2023/01/09 09:07:36;;;;;;;0.15;0.15;;;;;;;9.86;71.89;99624.50;5033973;28;20100;-80
2023/01/09 09:10:03;;;;;;;0.10;0.10;;;;;;;9.91;71.66;99625.19;5036515;28;20087;-80
2023/01/09 09:12:29;;;;;;;0.10;0.10;;;;;;;9.85;71.47;99636.84;5037169;28;20044;-79
2023/01/09 09:15:26;;;;;;;0.20;0.20;;;;;;;9.96;71.58;99631.16;5042247;28;20048;-79
2023/01/09 09:17:43;;;;;;;0.10;0.10;;;;;;;9.96;71.33;99648.84;5053315;28;20044;-79
2023/01/09 09:20:10;;;;;;;0.32;0.32;;;;;;;9.94;71.02;99654.16;5046181;28;20171;-80
2023/01/09 09:22:36;;;;;;;0.10;0.10;;;;;;;9.78;70.80;99653.88;5043642;28;20557;-80
2023/01/09 09:25:03;;;;;;;0.20;0.20;;;;;;;9.85;70.87;99657.16;5040263;28;20052;-80
2023/01/09 09:27:30;;;;;;;0.20;0.20;;;;;;;9.84;70.71;99658.06;5032064;28;20037;-80
2023/01/09 09:29:56;;;;;;;0.10;0.10;;;;;;;9.78;70.96;99671.50;5034545;28;20033;-81
2023/01/09 09:32:22;;;;;;;0.25;0.25;;;;;;;9.87;71.04;99671.19;5036230;28;20365;-80
2023/01/09 09:34:48;;;;;;;0.20;0.20;;;;;;;9.97;70.82;99672.59;5038881;28;20028;-80
2023/01/09 09:37:14;;;;;;;0.05;0.05;;;;;;;9.99;71.20;99670.75;5031488;28;20567;-81
2023/01/09 09:39:41;;;;;;;1.13;1.13;;;;;;;10.01;70.65;99676.84;5041601;28;20489;-79
2023/01/09 09:45:37;;;;;;;0.10;0.10;;;;;;;10.11;70.11;99695.91;5109785;27;20610;-80
2023/01/09 09:48:35;;;;;;;0.40;0.40;;;;;;;10.08;69.79;99703.09;5109735;28;20043;-79
2023/01/09 09:51:41;;;;;;;1.48;1.48;;;;;;;10.11;69.89;99709.13;5103931;28;20024;-79
2023/01/09 09:54:18;;;;;;;0.13;0.13;;;;;;;10.09;69.52;99703.03;5106313;28;20041;-79
2023/01/09 09:56:53;;;;;;;0.10;0.10;;;;;;;10.11;69.33;99716.22;5106901;28;20051;-79
2023/01/09 09:59:31;;;;;;;0.10;0.10;;;;;;;10.17;69.81;99718.66;5113072;28;20093;-79
2023/01/09 10:04:55;;;;;;;0.10;0.10;;;;;;;10.13;69.95;99746.13;5112338;27;20755;-79
2023/01/09 10:07:27;;;;;;;0.10;0.10;;;;;;;10.09;70.51;99753.31;5092108;28;20381;-80
2023/01/09 10:12:34;;;;;;;0.10;0.10;;;;;;;10.10;69.82;99751.53;5095012;28;20427;-78
2023/01/09 10:15:12;;;;;;;0.10;0.10;;;;;;;10.10;69.58;99764.78;5065084;28;20080;-79
2023/01/09 10:23:32;;;;;;;0.07;0.07;;;;;;;9.94;68.31;99770.59;5107474;27;1208295;-76
2023/01/09 10:26:15;;;;;;;0.10;0.10;;;;;;;9.95;68.55;99779.41;5116997;28;20039;-79
2023/01/09 10:32:05;;;;;;;0.10;0.10;;;;;;;10.05;68.65;99786.09;5070668;27;20421;-79
2023/01/09 10:37:21;;;;;;;0.10;0.10;;;;;;;10.01;68.77;99803.88;5071888;28;20368;-78
2023/01/09 10:39:53;;;;;;;0.27;0.27;;;;;;;10.16;68.80;99812.19;5069990;28;20037;-78
2023/01/09 10:45:27;;;;;;;0.10;0.10;;;;;;;10.24;68.86;99823.38;5090428;28;20386;-78
2023/01/09 10:48:01;;;;;;;0.10;0.10;;;;;;;10.20;68.51;99835.00;5069144;28;20608;-80
2023/01/09 10:50:32;;;;;;;0.20;0.20;;;;;;;10.21;68.21;99844.66;5071542;28;20475;-81
2023/01/09 10:53:03;;;;;;;0.17;0.17;;;;;;;10.28;68.21;99830.31;5071837;28;20565;-79
2023/01/09 10:58:12;;;;;;;0.32;0.32;;;;;;;10.32;67.46;99839.00;5072701;28;20790;-80
2023/01/09 11:00:39;;;;;;;0.10;0.10;;;;;;;10.34;66.90;99838.03;5058192;28;20032;-79
2023/01/09 11:03:10;;;;;;;0.10;0.10;;;;;;;10.48;67.44;99845.53;5074173;28;20067;-79
2023/01/09 11:05:36;;;;;;;0.10;0.10;;;;;;;10.47;66.56;99851.72;5083852;28;20032;-79
2023/01/09 11:08:15;;;;;;;0.25;0.25;;;;;;;10.49;67.04;99846.38;5083766;28;20028;-79
2023/01/09 11:16:20;;;;;;;0.10;0.10;;;;;;;10.58;65.56;99848.69;5110042;27;20404;-80
2023/01/09 11:24:28;;;;;;;0.10;0.10;;;;;;;10.63;65.82;99862.66;5071182;28;20387;-80
2023/01/09 11:27:22;;;;;;;0.10;0.10;;;;;;;10.65;66.09;99863.47;5051431;28;20028;-80
2023/01/09 11:30:11;;;;;;;0.10;0.10;;;;;;;10.63;66.46;99856.47;5035574;28;20467;-80
2023/01/09 11:32:38;;;;;;;0.10;0.10;;;;;;;10.54;66.13;99862.94;5032257;28;20025;-79
2023/01/09 11:35:12;;;;;;;0.10;0.10;;;;;;;10.61;66.17;99861.81;5031219;28;20505;-80
2023/01/09 11:37:38;;;;;;;0.57;0.57;;;;;;;10.65;66.31;99884.66;5032345;28;20436;-78
2023/01/09 11:40:15;;;;;;;0.10;0.10;;;;;;;10.73;66.22;99884.38;5040485;28;20040;-79
2023/01/09 11:42:59;;;;;;;0.30;0.30;;;;;;;10.79;66.52;99885.91;5045495;28;20029;-79
2023/01/09 11:45:32;;;;;;;0.10;0.10;;;;;;;10.81;66.13;99889.38;5052424;28;20047;-80
2023/01/09 11:48:00;;;;;;;0.10;0.10;;;;;;;10.80;65.97;99893.84;5052593;28;20378;-80
2023/01/09 11:50:28;;;;;;;0.10;0.10;;;;;;;10.87;66.05;99894.47;5050511;28;20029;-81
2023/01/09 11:53:16;;;;;;;0.10;0.10;;;;;;;10.93;65.88;99896.00;5068144;28;20032;-78
2023/01/09 11:55:44;;;;;;;0.10;0.10;;;;;;;10.99;66.18;99895.78;5060752;28;20055;-80
2023/01/09 11:58:19;;;;;;;0.43;0.43;;;;;;;11.03;65.39;99902.72;5053283;28;20032;-80
2023/01/09 12:01:14;;;;;;;0.15;0.15;;;;;;;11.16;65.72;99897.81;5051771;28;20519;-80
2023/01/09 12:03:59;;;;;;;0.17;0.17;;;;;;;11.25;65.57;99899.25;5051752;28;20044;-80
2023/01/09 12:09:56;;;;;;;0.10;0.10;;;;;;;11.43;64.98;99909.16;5071696;28;20394;-80
2023/01/09 12:15:23;;;;;;;0.10;0.10;;;;;;;11.44;64.40;99904.72;5097471;27;1179027;-81
2023/01/09 12:29:01;;;;;;;0.10;0.10;;;;;;;11.10;63.75;99919.25;5073280;28;20361;-78
2023/01/09 12:34:53;;;;;;;0.30;0.30;;;;;;;11.07;64.72;99936.13;5115500;27;1189994;-80
2023/01/09 12:43:13;;;;;;;0.10;0.10;;;;;;;11.18;63.40;99941.06;5119430;27;20403;-78
2023/01/09 12:48:45;;;;;;;0.10;0.10;;;;;;;11.26;63.62;99951.38;5126700;27;20383;-79
2023/01/09 12:56:59;;;;;;;9.20;0.73;;;;;;;11.03;64.39;99954.84;5118249;27;20347;-79
2023/01/09 12:59:33;;;;;;;0.10;0.10;;;;;;;10.93;64.15;99951.66;5115589;28;20051;-80
2023/01/09 13:02:15;;;;;;;2.20;0.70;;;;;;;10.88;64.05;99957.16;5119017;28;20451;-79
2023/01/09 13:04:53;;;;;;;1.25;1.25;;;;;;;10.78;64.13;99967.22;5118758;28;20019;-79
2023/01/09 13:07:25;;;;;;;0.17;0.17;;;;;;;10.74;64.36;99959.41;5118869;28;20495;-78
2023/01/09 13:12:38;;;;;;;0.10;0.10;;;;;;;10.77;63.82;99972.56;5126480;27;20395;-79
2023/01/09 13:15:20;;;;;;;0.28;0.28;;;;;;;10.75;63.48;99974.41;5123085;28;20035;-80
2023/01/09 13:17:52;;;;;;;0.20;0.20;;;;;;;10.76;63.81;99979.63;5119986;28;20019;-79
2023/01/09 13:20:40;;;;;;;0.20;0.20;;;;;;;10.87;63.87;99987.22;5117982;28;20243;-80
2023/01/09 13:23:14;;;;;;;0.50;0.50;;;;;;;10.93;63.70;99991.41;5118007;28;20056;-79
2023/01/09 13:25:48;;;;;;;0.10;0.10;;;;;;;10.97;63.93;100009.81;5111041;28;20020;-79